Time;durP1;ratioP1;P1;durP2;ratioP2;P2;SDS_P1;SDS_P2;PMS_P1;PMS_P2;Temp;Humidity;BMP_temperature;BMP_pressure;BME280_temperature;BME280_humidity;BME280_pressure;Samples;Min_cycle;Max_cycle;Signal;HPM_P1;HPM_P2
2022/02/06 00:00:53;;;;;;;13.90;2.53;;;;;;;6.54;94.84;101049.38;2090478;28;20477;-59
2022/02/06 00:01:53;;;;;;;8.10;2.28;;;;;;;6.56;94.58;101047.59;2089672;28;20428;-59
2022/02/06 00:02:55;;;;;;;9.10;1.97;;;;;;;6.55;94.47;101054.53;2089865;28;20027;-61
2022/02/06 00:03:58;;;;;;;7.88;2.20;;;;;;;6.58;94.11;101053.63;2090348;28;20049;-59
2022/02/06 00:04:58;;;;;;;7.68;2.58;;;;;;;6.55;94.35;101033.78;2090447;28;20025;-60
2022/02/06 00:06:00;;;;;;;10.13;2.20;;;;;;;6.61;94.23;101042.31;2089760;28;20416;-59
2022/02/06 00:07:00;;;;;;;6.20;2.55;;;;;;;6.57;94.10;101029.41;2089831;28;20100;-60
2022/02/06 00:08:04;;;;;;;6.93;2.33;;;;;;;6.58;94.01;101038.06;2090395;28;20547;-60
2022/02/06 00:09:05;;;;;;;7.55;2.40;;;;;;;6.57;93.88;100997.47;2090333;28;20492;-60
2022/02/06 00:10:05;;;;;;;10.90;2.63;;;;;;;6.59;93.52;101024.19;2090431;28;20078;-60
2022/02/06 00:11:06;;;;;;;6.20;2.25;;;;;;;6.59;94.12;101024.19;2090292;28;20071;-59
2022/02/06 00:12:07;;;;;;;11.60;2.88;;;;;;;6.59;93.64;101012.97;2090390;28;20021;-59
2022/02/06 00:13:08;;;;;;;10.68;2.45;;;;;;;6.60;93.97;101005.16;2090441;28;20025;-58
2022/02/06 00:14:08;;;;;;;12.43;2.65;;;;;;;6.60;94.22;101009.50;2090503;28;20029;-58
2022/02/06 00:15:09;;;;;;;10.77;3.03;;;;;;;6.61;93.94;101017.25;2090354;28;20052;-60
2022/02/06 00:16:09;;;;;;;11.85;2.47;;;;;;;6.65;93.41;101007.63;2090332;28;20029;-60
2022/02/06 00:17:09;;;;;;;13.20;4.03;;;;;;;6.67;93.23;101024.03;2090323;28;20441;-59
2022/02/06 00:18:10;;;;;;;9.37;2.47;;;;;;;6.69;93.20;100994.56;2090366;28;20017;-60
2022/02/06 00:19:10;;;;;;;8.30;2.03;;;;;;;6.73;92.97;101005.72;2089710;28;20194;-59
2022/02/06 00:20:10;;;;;;;10.97;4.57;;;;;;;6.74;93.23;101012.59;2089741;28;20048;-59
2022/02/06 00:21:14;;;;;;;5.50;2.03;;;;;;;6.79;92.67;101010.78;2090282;28;20028;-59
2022/02/06 00:22:27;;;;;;;9.20;2.38;;;;;;;6.80;92.59;100994.31;2090314;28;20048;-59
2022/02/06 00:23:30;;;;;;;11.65;2.92;;;;;;;6.78;92.34;100997.84;2090192;28;20025;-59
2022/02/06 00:24:39;;;;;;;7.88;3.17;;;;;;;6.76;92.76;100984.03;2089739;28;20066;-60
2022/02/06 00:25:55;;;;;;;5.63;2.13;;;;;;;6.78;91.98;100988.28;2089618;28;20520;-59
2022/02/06 00:27:06;;;;;;;9.45;2.30;;;;;;;6.78;92.69;100982.28;2089135;28;20029;-59
2022/02/06 00:29:14;;;;;;;9.57;2.75;;;;;;;6.80;92.04;100996.03;2089732;28;20025;-59
2022/02/06 00:33:07;;;;;;;6.20;2.03;;;;;;;6.87;91.19;100976.84;2090206;28;20468;-59
2022/02/06 00:34:32;;;;;;;5.47;2.05;;;;;;;6.87;91.94;100968.22;2090242;28;20374;-59
2022/02/06 00:39:06;;;;;;;8.88;2.05;;;;;;;6.86;92.34;100964.78;2090244;28;20505;-60
2022/02/06 00:40:07;;;;;;;9.03;2.37;;;;;;;6.86;91.91;100962.19;2090207;28;20021;-60
2022/02/06 00:41:13;;;;;;;10.05;2.60;;;;;;;6.83;91.79;100960.53;2090257;28;20048;-61
2022/02/06 00:42:13;;;;;;;8.90;2.40;;;;;;;6.82;92.38;100958.78;2090196;28;20027;-60
2022/02/06 00:43:14;;;;;;;8.88;2.47;;;;;;;6.79;93.05;100950.25;2090180;28;20053;-59
2022/02/06 00:44:14;;;;;;;10.37;2.17;;;;;;;6.80;92.94;100949.34;2090225;28;20393;-60
2022/02/06 00:45:14;;;;;;;10.13;2.07;;;;;;;6.83;93.12;100938.91;2090211;28;20025;-58
2022/02/06 00:46:17;;;;;;;7.03;2.63;;;;;;;6.83;92.34;100949.28;2090159;28;20037;-61
2022/02/06 00:47:17;;;;;;;9.70;2.53;;;;;;;6.82;92.38;100942.41;2089971;28;20491;-60
2022/02/06 00:48:22;;;;;;;5.67;2.20;;;;;;;6.85;92.38;100951.84;2090085;28;20025;-59
2022/02/06 00:49:27;;;;;;;8.43;2.75;;;;;;;6.88;91.98;100952.59;2089998;28;20116;-59
2022/02/06 00:50:29;;;;;;;8.00;2.10;;;;;;;6.87;93.00;100950.06;2090118;28;20092;-60
2022/02/06 00:51:43;;;;;;;;;;;;;;;6.90;93.29;100943.03;2090410;28;20402;-59
2022/02/06 00:52:53;;;;;;;5.78;2.80;;;;;;;6.85;93.15;100936.28;2090202;28;19923;-60
2022/02/06 00:53:53;;;;;;;12.82;2.85;;;;;;;6.79;93.60;100934.69;2090105;28;20078;-60
2022/02/06 00:54:54;;;;;;;6.73;2.33;;;;;;;6.82;94.02;100932.84;2090135;28;20028;-61
2022/02/06 00:55:54;;;;;;;8.70;2.27;;;;;;;6.83;94.20;100929.38;2089389;28;20501;-60
2022/02/06 00:56:55;;;;;;;9.17;1.97;;;;;;;6.82;93.69;100932.03;2089456;28;20374;-59
2022/02/06 00:57:55;;;;;;;11.38;2.90;;;;;;;6.78;94.19;100930.41;2090078;28;20039;-59
2022/02/06 00:58:56;;;;;;;6.73;2.17;;;;;;;6.75;94.61;100926.13;2090018;28;20025;-61
2022/02/06 00:59:56;;;;;;;10.77;2.83;;;;;;;6.77;95.12;100923.50;2089827;28;20020;-60
2022/02/06 01:00:57;;;;;;;7.27;2.37;;;;;;;6.72;95.23;100925.34;2090053;28;20032;-61
2022/02/06 01:01:57;;;;;;;10.52;3.10;;;;;;;6.65;95.66;100920.34;2090027;28;20481;-61
2022/02/06 01:02:57;;;;;;;8.80;2.00;;;;;;;6.62;95.98;100916.94;2090007;28;20032;-59
2022/02/06 01:03:58;;;;;;;10.50;2.97;;;;;;;6.60;96.70;100911.78;2089950;28;20056;-60
2022/02/06 01:04:58;;;;;;;8.73;2.03;;;;;;;6.55;96.52;100924.03;2090039;28;20033;-60
2022/02/06 01:05:58;;;;;;;11.13;2.10;;;;;;;6.55;96.94;100908.47;2090025;28;20028;-60
2022/02/06 01:06:58;;;;;;;10.33;3.00;;;;;;;6.56;96.73;100920.53;2090073;28;20508;-60
2022/02/06 01:07:59;;;;;;;9.03;4.33;;;;;;;6.53;96.99;100915.41;2090023;28;20029;-59
2022/02/06 01:08:59;;;;;;;7.33;2.30;;;;;;;6.50;98.08;100918.94;2089315;28;20029;-60
2022/02/06 01:09:59;;;;;;;11.30;3.20;;;;;;;6.50;97.08;100920.69;2089456;28;20501;-59
2022/02/06 01:11:04;;;;;;;8.87;2.77;;;;;;;6.47;97.62;100906.06;2090046;28;20025;-59
2022/02/06 01:12:05;;;;;;;10.32;2.03;;;;;;;6.43;98.06;100919.97;2089916;28;20028;-60
2022/02/06 01:15:02;;;;;;;7.80;2.15;;;;;;;6.54;97.87;100901.59;2089663;28;20032;-57
2022/02/06 01:16:11;;;;;;;7.28;2.30;;;;;;;6.44;97.66;100912.16;2089276;28;20039;-58
2022/02/06 01:17:24;;;;;;;10.23;2.83;;;;;;;6.41;98.44;100914.00;2089453;28;20500;-58
2022/02/06 01:18:31;;;;;;;15.70;2.92;;;;;;;6.40;98.91;100910.53;2090062;28;20371;-58
2022/02/06 01:19:44;;;;;;;7.65;2.45;;;;;;;6.37;98.70;100897.63;2089976;28;20492;-58
2022/02/06 01:20:53;;;;;;;11.32;3.38;;;;;;;6.34;99.40;100910.69;2089377;28;20041;-58
2022/02/06 01:22:07;;;;;;;8.57;1.98;;;;;;;6.31;99.06;100913.34;2089462;28;20067;-58
2022/02/06 01:23:24;;;;;;;6.53;2.20;;;;;;;6.29;99.28;100902.16;2089321;28;20418;-59
2022/02/06 01:25:34;;;;;;;8.30;3.07;;;;;;;6.26;100.00;100904.84;2090099;28;20382;-59
2022/02/06 01:26:40;;;;;;;6.55;2.25;;;;;;;6.23;100.00;100910.09;2089258;28;20025;-60
2022/02/06 01:27:47;;;;;;;5.97;2.30;;;;;;;6.25;99.84;100900.53;2089332;28;20078;-61
2022/02/06 01:28:53;;;;;;;9.30;2.05;;;;;;;6.26;100.00;100895.31;2090056;28;20086;-59
2022/02/06 01:30:00;;;;;;;5.22;1.83;;;;;;;6.23;100.00;100903.16;2089899;28;20040;-59
2022/02/06 01:32:24;;;;;;;5.80;1.98;;;;;;;6.20;100.00;100892.88;2090040;28;20044;-59
2022/02/06 01:33:33;;;;;;;8.98;2.35;;;;;;;6.20;100.00;100886.84;2089986;28;20504;-60
2022/02/06 01:34:48;;;;;;;6.63;2.10;;;;;;;6.16;100.00;100889.50;2089954;28;20474;-58
2022/02/06 01:35:57;;;;;;;7.55;2.28;;;;;;;6.14;100.00;100899.06;2089956;28;20462;-58
2022/02/06 01:37:45;;;;;;;7.00;2.60;;;;;;;6.13;100.00;100896.50;2089987;28;20032;-59
2022/02/06 01:38:27;;;;;;;7.72;2.35;;;;;;;6.12;100.00;100880.09;2090951;28;20406;-59
2022/02/06 01:39:51;;;;;;;5.60;1.83;;;;;;;6.11;100.00;100895.66;2091532;28;20492;-59
2022/02/06 01:41:13;;;;;;;7.93;1.92;;;;;;;6.09;100.00;100890.50;2091607;28;20032;-59
2022/02/06 01:42:24;;;;;;;5.50;1.88;;;;;;;6.14;100.00;100895.59;2091603;28;20028;-59
2022/02/06 01:43:32;;;;;;;5.30;1.87;;;;;;;6.14;100.00;100886.09;2091567;28;20031;-59
2022/02/06 01:44:53;;;;;;;6.60;2.20;;;;;;;6.13;100.00;100880.94;2090874;28;20294;-59
2022/02/06 01:46:14;;;;;;;7.10;2.05;;;;;;;6.14;100.00;100878.31;2091109;28;20025;-61
2022/02/06 02:04:06;;;;;;;8.93;1.95;;;;;;;6.10;100.00;100844.72;2091420;28;20421;-57
2022/02/06 02:05:37;;;;;;;7.05;2.38;;;;;;;6.10;100.00;100850.78;2090738;28;20036;-58
2022/02/06 02:10:09;;;;;;;9.15;2.25;;;;;;;6.11;100.00;100846.44;2091384;28;20052;-58
2022/02/06 02:10:55;;;;;;;7.28;2.38;;;;;;;6.10;100.00;100844.72;2090795;28;20045;-57
2022/02/06 02:21:01;;;;;;;6.33;1.73;;;;;;;6.11;100.00;100828.28;2091464;28;20451;-57
2022/02/06 02:30:22;;;;;;;9.73;2.30;;;;;;;6.02;100.00;100812.06;2091175;28;20112;-58
2022/02/06 02:42:52;;;;;;;15.57;3.53;;;;;;;6.01;100.00;100814.69;2091381;28;20124;-58
2022/02/06 02:43:43;;;;;;;7.55;1.75;;;;;;;5.85;100.00;100783.94;2091257;28;20482;-59
2022/02/06 02:46:41;;;;;;;8.07;1.90;;;;;;;5.92;100.00;100785.50;2091206;28;20535;-59
2022/02/06 02:47:46;;;;;;;10.73;2.42;;;;;;;5.85;100.00;100789.13;2090926;28;20134;-57
2022/02/06 02:48:47;;;;;;;8.52;2.45;;;;;;;5.82;100.00;100778.88;2090369;28;20047;-59
2022/02/06 02:49:54;;;;;;;11.07;2.33;;;;;;;5.80;100.00;100780.63;2089508;28;20112;-58
2022/02/06 02:51:00;;;;;;;9.60;2.40;;;;;;;5.80;100.00;100776.31;2091077;28;20470;-59
2022/02/06 02:52:06;;;;;;;9.90;3.38;;;;;;;5.82;100.00;100778.88;2090933;28;20055;-59
2022/02/06 02:53:32;;;;;;;6.57;2.03;;;;;;;5.90;100.00;100782.13;2091038;28;20037;-59
2022/02/06 02:54:34;;;;;;;6.47;1.98;;;;;;;5.85;100.00;100767.59;2091010;28;20432;-59
2022/02/06 02:57:06;;;;;;;7.65;1.83;;;;;;;5.82;100.00;100772.81;2090524;28;20033;-60
2022/02/06 03:01:39;;;;;;;7.20;2.33;;;;;;;5.89;100.00;100770.03;2090871;28;20033;-59
2022/02/06 03:02:39;;;;;;;7.07;1.98;;;;;;;5.86;100.00;100754.59;2090899;28;20029;-59
2022/02/06 03:03:41;;;;;;;8.67;2.00;;;;;;;5.82;100.00;100755.56;2090862;28;20094;-59
2022/02/06 03:04:43;;;;;;;5.40;2.20;;;;;;;5.76;100.00;100759.16;2090912;28;20025;-59
2022/02/06 03:05:46;;;;;;;4.50;1.60;;;;;;;5.76;100.00;100753.97;2090892;28;20496;-60
2022/02/06 03:06:47;;;;;;;3.22;1.63;;;;;;;5.80;100.00;100755.59;2090867;28;20362;-59
2022/02/06 03:07:49;;;;;;;9.07;1.70;;;;;;;5.79;100.00;100746.09;2090902;28;20028;-60
2022/02/06 03:08:51;;;;;;;6.75;1.95;;;;;;;5.74;100.00;100754.88;2090866;28;20098;-59
2022/02/06 03:09:51;;;;;;;6.28;1.65;;;;;;;5.75;100.00;100746.22;2090812;28;20025;-59
2022/02/06 03:10:53;;;;;;;5.03;1.73;;;;;;;5.75;100.00;100746.22;2090139;28;20552;-60
2022/02/06 03:11:53;;;;;;;12.20;2.90;;;;;;;5.75;100.00;100741.06;2090246;28;20013;-59
2022/02/06 03:12:54;;;;;;;7.13;1.57;;;;;;;5.78;100.00;100748.72;2090853;28;20403;-59
2022/02/06 03:15:04;;;;;;;5.73;1.73;;;;;;;5.76;100.00;100743.59;2090937;28;20329;-58
2022/02/06 03:17:21;;;;;;;5.95;2.08;;;;;;;5.76;100.00;100742.75;2090963;28;20052;-60
2022/02/06 03:18:27;;;;;;;8.15;1.92;;;;;;;5.74;100.00;100729.81;2090782;28;20378;-59
2022/02/06 03:19:29;;;;;;;7.10;2.20;;;;;;;5.72;100.00;100725.59;2090736;28;20474;-60
2022/02/06 03:20:31;;;;;;;3.38;1.60;;;;;;;5.70;100.00;100728.19;2090750;28;20104;-59
2022/02/06 03:21:33;;;;;;;4.90;1.63;;;;;;;5.74;100.00;100731.56;2090771;28;20397;-59
2022/02/06 03:22:54;;;;;;;8.05;2.17;;;;;;;5.73;100.00;100722.97;2090708;28;20017;-59
2022/02/06 03:24:07;;;;;;;6.95;2.05;;;;;;;5.71;100.00;100713.53;2090747;28;20028;-59
2022/02/06 03:25:16;;;;;;;5.25;2.08;;;;;;;5.68;100.00;100711.84;2090744;28;20112;-58
2022/02/06 03:26:22;;;;;;;6.15;1.95;;;;;;;5.67;100.00;100713.59;2090613;28;20052;-59
2022/02/06 03:27:22;;;;;;;6.20;2.22;;;;;;;5.70;100.00;100712.66;2089972;28;20044;-59
2022/02/06 03:28:24;;;;;;;5.20;1.83;;;;;;;5.66;100.00;100727.44;2090138;28;20035;-59
2022/02/06 03:29:25;;;;;;;6.18;2.03;;;;;;;5.65;100.00;100707.59;2090586;28;20044;-59
2022/02/06 03:30:29;;;;;;;5.47;1.85;;;;;;;5.65;100.00;100707.59;2090694;28;20017;-59
2022/02/06 03:31:30;;;;;;;4.32;1.70;;;;;;;5.64;100.00;100716.25;2090660;28;20489;-60
2022/02/06 03:32:30;;;;;;;6.00;1.60;;;;;;;5.66;100.00;100705.88;2090683;28;20065;-59
2022/02/06 03:33:30;;;;;;;5.87;1.80;;;;;;;5.64;100.00;100708.50;2090690;28;20360;-59
2022/02/06 03:34:30;;;;;;;7.67;2.10;;;;;;;5.65;100.00;100728.31;2090702;28;20110;-60
2022/02/06 03:35:31;;;;;;;6.00;2.13;;;;;;;5.63;100.00;100705.94;2090665;28;20028;-59
2022/02/06 03:36:31;;;;;;;8.97;1.97;;;;;;;5.62;100.00;100717.19;2090663;28;20033;-59
2022/02/06 03:37:32;;;;;;;8.57;2.22;;;;;;;5.61;100.00;100702.53;2090580;28;20752;-58
2022/02/06 03:38:32;;;;;;;4.70;1.90;;;;;;;5.62;100.00;100714.59;2090659;28;20049;-58
2022/02/06 03:39:35;;;;;;;4.07;1.93;;;;;;;5.63;100.00;100709.38;2090627;28;20039;-58
2022/02/06 03:41:02;;;;;;;10.23;2.33;;;;;;;5.62;100.00;100704.25;2090655;28;20470;-59
2022/02/06 03:42:10;;;;;;;5.40;1.77;;;;;;;5.63;100.00;100706.78;2090442;28;20036;-59
2022/02/06 03:43:16;;;;;;;3.47;1.60;;;;;;;5.61;100.00;100698.19;2090718;28;20024;-59
2022/02/06 03:44:41;;;;;;;5.75;2.30;;;;;;;5.59;100.00;100696.53;2090681;28;20078;-59
2022/02/06 03:45:45;;;;;;;5.97;2.15;;;;;;;5.58;100.00;100695.69;2090542;28;20021;-59
2022/02/06 03:46:57;;;;;;;6.35;2.05;;;;;;;5.61;100.00;100693.00;2090576;28;20480;-59
2022/02/06 03:48:09;;;;;;;4.95;1.50;;;;;;;5.60;100.00;100706.84;2090636;28;20037;-58
2022/02/06 03:49:14;;;;;;;10.15;2.13;;;;;;;5.61;100.00;100693.00;2090512;28;20087;-60
2022/02/06 03:50:17;;;;;;;6.57;2.25;;;;;;;5.63;100.00;100687.81;2090525;28;20021;-59
2022/02/06 03:51:20;;;;;;;6.63;1.80;;;;;;;5.63;100.00;100701.63;2090530;28;20028;-59
2022/02/06 03:52:26;;;;;;;5.97;1.90;;;;;;;5.64;100.00;100692.09;2090515;28;20021;-59
2022/02/06 03:53:27;;;;;;;3.92;1.73;;;;;;;5.64;100.00;100692.94;2090542;28;20021;-60
2022/02/06 03:54:27;;;;;;;7.70;2.10;;;;;;;5.67;100.00;100692.88;2090513;28;20036;-59
2022/02/06 03:55:30;;;;;;;5.53;2.57;;;;;;;5.64;100.00;100687.78;2090586;28;20021;-59
2022/02/06 03:56:32;;;;;;;6.07;1.90;;;;;;;5.64;100.00;100698.13;2090544;28;20116;-58
2022/02/06 03:57:32;;;;;;;6.18;2.13;;;;;;;5.63;100.00;100691.25;2089819;28;20509;-58
2022/02/06 03:58:32;;;;;;;6.00;1.33;;;;;;;5.64;100.00;100684.31;2089927;28;20080;-59
2022/02/06 03:59:35;;;;;;;6.23;2.47;;;;;;;5.65;100.00;100689.47;2090548;28;20496;-58
2022/02/06 04:00:36;;;;;;;8.85;2.20;;;;;;;5.64;100.00;100684.31;2090362;28;20263;-58
2022/02/06 04:01:36;;;;;;;3.72;1.77;;;;;;;5.64;100.00;100682.59;2090475;28;20029;-58
2022/02/06 04:02:36;;;;;;;3.07;1.50;;;;;;;5.66;100.00;100670.47;2089675;28;20470;-59
2022/02/06 04:03:37;;;;;;;8.43;4.20;;;;;;;5.67;100.00;100677.34;2089887;28;20068;-58
2022/02/06 04:04:37;;;;;;;5.07;1.70;;;;;;;5.65;100.00;100684.28;2089721;28;20068;-59
2022/02/06 04:05:38;;;;;;;7.20;2.23;;;;;;;5.65;100.00;100673.09;2081508;28;20025;-59
2022/02/06 04:06:40;;;;;;;12.68;2.67;;;;;;;5.66;100.00;100675.66;2081616;28;20484;-59
2022/02/06 04:07:42;;;;;;;5.07;1.75;;;;;;;5.70;100.00;100678.16;2089879;28;20367;-58
2022/02/06 04:08:43;;;;;;;3.30;2.30;;;;;;;5.73;100.00;100670.31;2090466;28;20025;-58
2022/02/06 04:09:49;;;;;;;7.75;4.82;;;;;;;5.72;100.00;100668.63;2090412;28;20029;-58
2022/02/06 04:10:51;;;;;;;7.28;2.08;;;;;;;5.72;100.00;100669.47;2090448;28;20029;-58
2022/02/06 04:11:53;;;;;;;8.27;2.20;;;;;;;5.71;100.00;100659.97;2090426;28;20500;-58
2022/02/06 04:12:54;;;;;;;4.72;1.80;;;;;;;5.71;100.00;100654.81;2090455;28;20029;-58
2022/02/06 04:15:13;;;;;;;3.88;1.92;;;;;;;5.79;100.00;100659.81;2090524;28;20430;-58
2022/02/06 04:16:16;;;;;;;5.15;1.73;;;;;;;5.80;100.00;100657.19;2090486;28;20020;-58
2022/02/06 04:17:22;;;;;;;5.25;2.33;;;;;;;5.80;100.00;100658.91;2090434;28;20024;-58
2022/02/06 04:19:18;;;;;;;3.88;1.92;;;;;;;5.79;100.00;100650.28;2090335;28;20096;-59
2022/02/06 04:19:43;;;;;;;4.05;1.40;;;;;;;5.82;100.00;100656.28;2089771;28;20482;-58
2022/02/06 04:20:44;;;;;;;6.00;2.40;;;;;;;5.85;100.00;100658.81;2090437;28;20106;-58
2022/02/06 04:21:44;;;;;;;3.08;1.60;;;;;;;5.86;100.00;100645.81;2089736;28;20025;-59
2022/02/06 04:22:44;;;;;;;5.43;2.63;;;;;;;5.88;100.00;100658.69;2089703;28;20033;-58
2022/02/06 04:23:44;;;;;;;4.47;2.00;;;;;;;5.89;100.00;100656.06;2089829;28;20481;-58
2022/02/06 04:24:45;;;;;;;11.20;2.10;;;;;;;5.86;100.00;100640.63;2090340;28;20029;-58
2022/02/06 04:25:45;;;;;;;8.32;1.83;;;;;;;5.86;100.00;100643.22;2090337;28;20021;-59
2022/02/06 04:26:46;;;;;;;5.70;2.23;;;;;;;5.87;100.00;100652.69;2090216;28;20020;-59
2022/02/06 04:27:46;;;;;;;5.55;1.67;;;;;;;5.88;100.00;100654.38;2090232;28;20025;-59
2022/02/06 04:28:46;;;;;;;7.00;1.90;;;;;;;5.87;100.00;100631.97;2090217;28;20044;-58
2022/02/06 04:29:48;;;;;;;4.07;1.67;;;;;;;5.89;100.00;100640.53;2090244;28;20119;-58
2022/02/06 04:30:49;;;;;;;4.05;1.60;;;;;;;5.89;100.00;100637.94;2090254;28;20032;-58
2022/02/06 04:31:50;;;;;;;4.13;1.80;;;;;;;5.87;100.00;100629.38;2090234;28;20485;-59
2022/02/06 04:32:53;;;;;;;4.00;2.05;;;;;;;5.88;100.00;100638.84;2090242;28;20025;-59
2022/02/06 04:33:53;;;;;;;4.80;1.67;;;;;;;5.88;100.00;100623.31;2090247;28;20040;-58
2022/02/06 04:34:56;;;;;;;4.97;1.50;;;;;;;5.90;100.00;100625.84;2090211;28;20437;-59
2022/02/06 04:35:59;;;;;;;2.45;1.33;;;;;;;5.89;100.00;100619.81;2090210;28;20393;-59
2022/02/06 04:39:53;;;;;;;3.42;1.38;;;;;;;5.89;100.00;100629.34;2090286;28;20044;-58
2022/02/06 04:44:44;;;;;;;4.30;1.67;;;;;;;5.86;100.00;100600.94;2090361;28;20087;-59
2022/02/06 04:46:45;;;;;;;4.43;1.70;;;;;;;5.89;100.00;100604.28;2090105;28;20025;-58
2022/02/06 05:12:01;;;;;;;3.30;1.40;;;;;;;5.93;100.00;100548.91;2090092;28;20029;-59
2022/02/06 05:14:28;;;;;;;4.53;1.30;;;;;;;5.92;100.00;100542.03;2090128;28;20056;-58
2022/02/06 05:15:43;;;;;;;3.80;1.55;;;;;;;5.95;100.00;100527.31;2090028;28;20394;-59
2022/02/06 05:23:52;;;;;;;3.75;1.75;;;;;;;5.91;100.00;100524.78;2082616;28;20045;-59
2022/02/06 05:25:21;;;;;;;4.20;2.20;;;;;;;5.90;100.00;100528.28;2090043;28;20075;-59
2022/02/06 05:29:01;;;;;;;5.72;1.60;;;;;;;5.89;100.00;100523.97;2090161;28;20489;-58
2022/02/06 05:30:09;;;;;;;3.13;2.10;;;;;;;5.90;100.00;100511.88;2089755;28;20118;-59
2022/02/06 05:31:13;;;;;;;3.53;1.40;;;;;;;5.88;100.00;100506.75;2089306;28;20033;-57
2022/02/06 05:32:33;;;;;;;4.32;1.50;;;;;;;5.85;100.00;100496.47;2089381;28;20513;-58
2022/02/06 05:33:35;;;;;;;4.30;1.58;;;;;;;5.84;100.00;100507.72;2090001;28;20070;-59
2022/02/06 05:34:35;;;;;;;3.58;1.80;;;;;;;5.85;100.00;100495.63;2089876;28;20509;-58
2022/02/06 05:35:38;;;;;;;4.07;1.87;;;;;;;5.84;100.00;100501.69;2090001;28;20025;-59
2022/02/06 05:36:38;;;;;;;2.60;2.03;;;;;;;5.82;100.00;100504.34;2089959;28;20470;-58
2022/02/06 05:37:39;;;;;;;3.85;1.38;;;;;;;5.84;100.00;100506.88;2089318;28;20091;-59
2022/02/06 05:38:39;;;;;;;4.97;1.70;;;;;;;5.82;100.00;100498.31;2089399;28;20032;-59
2022/02/06 05:39:39;;;;;;;7.40;1.93;;;;;;;5.83;100.00;100500.84;2089921;28;20059;-59
2022/02/06 05:40:40;;;;;;;5.57;1.80;;;;;;;5.80;100.00;100486.25;2089939;28;20514;-59
2022/02/06 05:41:40;;;;;;;2.93;1.47;;;;;;;5.82;100.00;100488.81;2090012;28;20430;-59
2022/02/06 05:42:42;;;;;;;4.03;1.30;;;;;;;5.84;100.00;100494.78;2089912;28;20031;-58
2022/02/06 05:43:43;;;;;;;4.63;1.50;;;;;;;5.82;100.00;100499.16;2089917;28;20096;-58
2022/02/06 05:44:47;;;;;;;2.40;1.40;;;;;;;5.82;100.00;100494.00;2089987;28;20102;-59
2022/02/06 05:45:47;;;;;;;3.88;1.45;;;;;;;5.81;100.00;100492.25;2089880;28;20403;-59
2022/02/06 05:46:47;;;;;;;5.83;1.93;;;;;;;5.79;100.00;100500.06;2089855;28;20037;-60
2022/02/06 05:47:48;;;;;;;3.20;1.80;;;;;;;5.79;100.00;100489.72;2089759;28;20049;-59
2022/02/06 05:48:49;;;;;;;3.03;1.23;;;;;;;5.76;100.00;100481.19;2089963;28;20033;-59
2022/02/06 05:49:49;;;;;;;3.93;1.97;;;;;;;5.76;100.00;100478.63;2089862;28;20035;-60
2022/02/06 05:50:50;;;;;;;6.10;1.65;;;;;;;5.76;100.00;100468.25;2090174;28;20028;-59
2022/02/06 05:51:50;;;;;;;4.37;1.57;;;;;;;5.75;100.00;100477.75;2089842;28;20021;-59
2022/02/06 05:52:50;;;;;;;1.90;1.37;;;;;;;5.77;100.00;100485.47;2089938;28;20371;-59
2022/02/06 05:53:51;;;;;;;3.27;1.30;;;;;;;5.77;100.00;100480.31;2089941;28;20025;-59
2022/02/06 05:54:52;;;;;;;5.83;1.70;;;;;;;5.77;100.00;100486.34;2089930;28;20290;-59
2022/02/06 05:55:52;;;;;;;4.07;1.67;;;;;;;5.76;100.00;100479.47;2089928;28;20068;-59
2022/02/06 05:56:53;;;;;;;6.07;1.75;;;;;;;5.77;100.00;100481.16;2089846;28;20025;-59
2022/02/06 05:57:53;;;;;;;4.00;1.10;;;;;;;5.79;100.00;100489.72;2089890;28;20021;-60
2022/02/06 05:58:54;;;;;;;4.50;1.77;;;;;;;5.80;100.00;100485.41;2089895;28;20279;-59
2022/02/06 05:59:54;;;;;;;2.33;1.27;;;;;;;5.80;100.00;100493.16;2089865;28;20024;-60
2022/02/06 06:00:54;;;;;;;3.73;1.40;;;;;;;5.82;100.00;100482.78;2089864;28;20070;-60
2022/02/06 06:01:55;;;;;;;2.17;1.50;;;;;;;5.81;100.00;100474.13;2089840;28;20477;-60
2022/02/06 06:02:56;;;;;;;2.92;1.13;;;;;;;5.82;100.00;100486.22;2089841;28;20175;-60
2022/02/06 06:03:57;;;;;;;4.03;1.60;;;;;;;5.85;100.00;100477.50;2089713;28;20021;-60
2022/02/06 06:04:57;;;;;;;4.50;1.73;;;;;;;5.84;100.00;100470.59;2089857;28;20389;-60
2022/02/06 06:05:57;;;;;;;5.10;2.03;;;;;;;5.84;100.00;100480.97;2089894;28;20051;-60
2022/02/06 06:06:57;;;;;;;2.47;1.33;;;;;;;5.84;100.00;100476.66;2089915;28;20472;-60
2022/02/06 06:07:58;;;;;;;4.10;1.83;;;;;;;5.85;100.00;100491.28;2089938;28;20021;-59
2022/02/06 06:08:58;;;;;;;4.97;1.80;;;;;;;5.87;100.00;100499.88;2089890;28;20029;-60
2022/02/06 06:09:58;;;;;;;4.00;1.60;;;;;;;5.89;100.00;100485.13;2089780;28;20052;-59
2022/02/06 06:10:59;;;;;;;3.73;1.83;;;;;;;5.93;100.00;100476.38;2089856;28;20037;-60
2022/02/06 06:11:59;;;;;;;3.63;1.57;;;;;;;5.94;100.00;100466.88;2089904;28;20050;-60
2022/02/06 06:13:01;;;;;;;4.57;1.40;;;;;;;5.93;100.00;100460.00;2089869;28;20296;-59
2022/02/06 06:14:02;;;;;;;2.90;1.83;;;;;;;5.90;100.00;100444.53;2089855;28;20059;-59
2022/02/06 06:15:02;;;;;;;3.47;1.63;;;;;;;5.90;100.00;100455.75;2089787;28;20017;-59
2022/02/06 06:16:04;;;;;;;5.23;1.80;;;;;;;5.92;100.00;100460.91;2089764;28;20028;-59
2022/02/06 06:17:05;;;;;;;5.45;2.08;;;;;;;5.95;100.00;100467.72;2089808;28;20279;-59
2022/02/06 06:18:07;;;;;;;4.77;1.97;;;;;;;5.95;100.00;100457.38;2089891;28;20371;-60
2022/02/06 06:19:07;;;;;;;2.85;1.45;;;;;;;5.95;100.00;100463.38;2089863;28;20540;-58
2022/02/06 06:20:15;;;;;;;3.00;1.60;;;;;;;5.97;100.00;100463.34;2089854;28;20040;-60
2022/02/06 06:21:17;;;;;;;4.18;1.85;;;;;;;5.95;100.00;100470.31;2089878;28;20100;-60
2022/02/06 06:22:19;;;;;;;2.72;1.52;;;;;;;5.95;100.00;100465.16;2089757;28;20048;-59
2022/02/06 06:23:23;;;;;;;5.45;1.63;;;;;;;5.97;100.00;100468.53;2089083;28;20029;-59
2022/02/06 06:24:25;;;;;;;5.65;1.88;;;;;;;6.01;100.00;100459.75;2089080;28;20029;-60
2022/02/06 06:25:31;;;;;;;5.00;1.50;;;;;;;6.00;100.00;100452.91;2090657;28;20536;-59
2022/02/06 06:26:36;;;;;;;3.97;1.48;;;;;;;6.00;100.00;100445.97;2091224;28;20393;-59
2022/02/06 06:27:37;;;;;;;7.57;1.42;;;;;;;6.01;100.00;100442.50;2091093;28;20108;-59
2022/02/06 06:28:37;;;;;;;4.97;1.87;;;;;;;6.01;100.00;100436.44;2091333;28;20017;-59
2022/02/06 06:29:37;;;;;;;4.80;1.53;;;;;;;6.02;100.00;100436.41;2091231;28;20021;-59
2022/02/06 06:30:37;;;;;;;2.63;1.33;;;;;;;6.05;100.00;100443.25;2091276;28;20029;-59
2022/02/06 06:31:38;;;;;;;4.53;1.90;;;;;;;6.03;100.00;100434.69;2091294;28;20020;-59
2022/02/06 06:32:39;;;;;;;6.13;1.57;;;;;;;6.02;100.00;100439.00;2091269;28;20488;-60
2022/02/06 06:33:39;;;;;;;4.38;2.10;;;;;;;6.03;100.00;100426.91;2091271;28;20041;-60
2022/02/06 06:34:40;;;;;;;2.57;1.50;;;;;;;6.06;100.00;100434.63;2091285;28;20465;-59
2022/02/06 06:35:40;;;;;;;2.93;1.30;;;;;;;6.06;100.00;100429.44;2090558;28;20017;-59
2022/02/06 06:36:41;;;;;;;3.63;1.80;;;;;;;6.07;100.00;100443.22;2090644;28;20031;-60
2022/02/06 06:37:42;;;;;;;4.38;1.80;;;;;;;6.06;100.00;100447.56;2091275;28;20460;-59
2022/02/06 06:38:42;;;;;;;3.80;1.50;;;;;;;6.07;100.00;100438.03;2091230;28;20024;-58
2022/02/06 06:39:44;;;;;;;4.37;1.70;;;;;;;6.07;100.00;100445.81;2091082;28;20074;-59
2022/02/06 06:40:44;;;;;;;2.88;1.58;;;;;;;6.08;100.00;100438.00;2091218;28;20032;-60
2022/02/06 06:41:45;;;;;;;2.47;1.77;;;;;;;6.08;100.00;100432.81;2091213;28;20104;-59
2022/02/06 06:42:45;;;;;;;3.40;1.60;;;;;;;6.08;100.00;100435.41;2091237;28;20433;-59
2022/02/06 06:43:45;;;;;;;5.07;2.00;;;;;;;6.07;100.00;100425.09;2091184;28;20464;-59
2022/02/06 06:44:46;;;;;;;4.73;1.87;;;;;;;6.07;100.00;100430.28;2091255;28;20087;-59
2022/02/06 06:45:46;;;;;;;2.93;1.60;;;;;;;6.09;100.00;100421.56;2091288;28;20039;-59
2022/02/06 06:46:46;;;;;;;4.23;1.43;;;;;;;6.11;100.00;100432.72;2091147;28;20044;-59
2022/02/06 06:47:51;;;;;;;3.17;1.23;;;;;;;6.11;100.00;100432.72;2090330;28;20041;-59
2022/02/06 06:48:51;;;;;;;3.05;2.00;;;;;;;6.12;100.00;100423.22;2090539;28;20119;-59
2022/02/06 06:49:52;;;;;;;2.50;1.40;;;;;;;6.12;100.00;100407.69;2090470;28;20025;-59
2022/02/06 06:50:52;;;;;;;3.53;1.60;;;;;;;6.13;100.00;100414.56;2091112;28;20032;-58